sensor_id;sensor_type;location;lat;lon;timestamp;temperature;humidity
4795;DHT22;2411;47.060;15.064;2023-04-12T00:01:04;2.70;1.00
4795;DHT22;2411;47.060;15.064;2023-04-12T00:03:31;2.70;1.00
4795;DHT22;2411;47.060;15.064;2023-04-12T00:06:00;2.90;1.00
4795;DHT22;2411;47.060;15.064;2023-04-12T00:08:29;3.00;1.00
4795;DHT22;2411;47.060;15.064;2023-04-12T00:11:02;3.30;1.00
4795;DHT22;2411;47.060;15.064;2023-04-12T00:13:29;3.30;1.00
4795;DHT22;2411;47.060;15.064;2023-04-12T00:15:57;3.20;1.00
4795;DHT22;2411;47.060;15.064;2023-04-12T00:18:24;3.00;1.00
4795;DHT22;2411;47.060;15.064;2023-04-12T00:20:53;3.00;1.00
4795;DHT22;2411;47.060;15.064;2023-04-12T00:23:21;2.70;1.00
4795;DHT22;2411;47.060;15.064;2023-04-12T00:25:48;2.60;1.00
4795;DHT22;2411;47.060;15.064;2023-04-12T00:28:16;2.50;1.00
4795;DHT22;2411;47.060;15.064;2023-04-12T00:30:43;2.40;1.00
4795;DHT22;2411;47.060;15.064;2023-04-12T00:33:12;2.40;1.00
4795;DHT22;2411;47.060;15.064;2023-04-12T00:35:39;2.40;1.00
4795;DHT22;2411;47.060;15.064;2023-04-12T00:38:06;2.40;1.00
4795;DHT22;2411;47.060;15.064;2023-04-12T00:40:42;2.40;1.00
4795;DHT22;2411;47.060;15.064;2023-04-12T00:43:10;2.50;1.00
4795;DHT22;2411;47.060;15.064;2023-04-12T00:45:47;2.70;1.00
4795;DHT22;2411;47.060;15.064;2023-04-12T00:48:15;3.00;1.00
4795;DHT22;2411;47.060;15.064;2023-04-12T00:50:43;2.90;1.00
4795;DHT22;2411;47.060;15.064;2023-04-12T00:53:13;2.80;1.00
4795;DHT22;2411;47.060;15.064;2023-04-12T00:55:43;2.70;1.00
4795;DHT22;2411;47.060;15.064;2023-04-12T00:58:12;2.90;1.00
4795;DHT22;2411;47.060;15.064;2023-04-12T01:00:40;2.80;1.00
4795;DHT22;2411;47.060;15.064;2023-04-12T01:03:08;2.80;1.00
4795;DHT22;2411;47.060;15.064;2023-04-12T01:05:42;2.70;1.00
4795;DHT22;2411;47.060;15.064;2023-04-12T01:08:31;2.20;1.00
4795;DHT22;2411;47.060;15.064;2023-04-12T01:11:08;2.30;1.00
4795;DHT22;2411;47.060;15.064;2023-04-12T01:16:27;2.00;1.00
4795;DHT22;2411;47.060;15.064;2023-04-12T01:19:00;1.80;1.00
4795;DHT22;2411;47.060;15.064;2023-04-12T01:21:58;1.90;1.00
4795;DHT22;2411;47.060;15.064;2023-04-12T01:24:54;1.80;1.00
4795;DHT22;2411;47.060;15.064;2023-04-12T01:27:46;1.80;1.00
4795;DHT22;2411;47.060;15.064;2023-04-12T01:30:16;1.70;1.00
4795;DHT22;2411;47.060;15.064;2023-04-12T01:32:47;1.80;1.00
4795;DHT22;2411;47.060;15.064;2023-04-12T01:35:18;1.70;1.00
4795;DHT22;2411;47.060;15.064;2023-04-12T01:37:47;1.80;1.00
4795;DHT22;2411;47.060;15.064;2023-04-12T01:40:14;1.80;1.00
4795;DHT22;2411;47.060;15.064;2023-04-12T01:42:44;1.80;1.00
4795;DHT22;2411;47.060;15.064;2023-04-12T01:45:11;1.80;1.00
4795;DHT22;2411;47.060;15.064;2023-04-12T01:47:38;2.00;1.00
4795;DHT22;2411;47.060;15.064;2023-04-12T01:55:35;2.40;1.00
4795;DHT22;2411;47.060;15.064;2023-04-12T01:58:04;2.50;1.00
4795;DHT22;2411;47.060;15.064;2023-04-12T02:00:34;2.60;1.00
4795;DHT22;2411;47.060;15.064;2023-04-12T02:03:02;2.30;1.00
4795;DHT22;2411;47.060;15.064;2023-04-12T02:05:31;1.80;1.00
4795;DHT22;2411;47.060;15.064;2023-04-12T02:08:01;1.70;1.00
4795;DHT22;2411;47.060;15.064;2023-04-12T02:10:30;1.80;1.00
4795;DHT22;2411;47.060;15.064;2023-04-12T02:12:58;1.80;1.00
4795;DHT22;2411;47.060;15.064;2023-04-12T02:15:27;1.90;1.00
4795;DHT22;2411;47.060;15.064;2023-04-12T02:17:55;2.20;1.00
4795;DHT22;2411;47.060;15.064;2023-04-12T02:20:22;2.20;1.00
4795;DHT22;2411;47.060;15.064;2023-04-12T02:22:53;2.20;1.00
4795;DHT22;2411;47.060;15.064;2023-04-12T02:25:20;2.10;1.00
4795;DHT22;2411;47.060;15.064;2023-04-12T02:27:48;2.00;1.00
4795;DHT22;2411;47.060;15.064;2023-04-12T02:30:15;1.70;1.00
4795;DHT22;2411;47.060;15.064;2023-04-12T02:32:42;1.60;1.00
4795;DHT22;2411;47.060;15.064;2023-04-12T02:35:14;1.50;1.00
4795;DHT22;2411;47.060;15.064;2023-04-12T02:37:45;1.40;1.00
4795;DHT22;2411;47.060;15.064;2023-04-12T02:40:13;1.20;1.00
4795;DHT22;2411;47.060;15.064;2023-04-12T02:42:42;1.20;1.00
4795;DHT22;2411;47.060;15.064;2023-04-12T02:45:10;1.40;1.00
4795;DHT22;2411;47.060;15.064;2023-04-12T02:47:37;1.60;1.00
4795;DHT22;2411;47.060;15.064;2023-04-12T02:50:07;1.50;1.00
4795;DHT22;2411;47.060;15.064;2023-04-12T02:52:34;1.50;1.00
4795;DHT22;2411;47.060;15.064;2023-04-12T02:55:01;1.50;1.00
4795;DHT22;2411;47.060;15.064;2023-04-12T02:57:29;1.50;1.00
4795;DHT22;2411;47.060;15.064;2023-04-12T02:59:57;1.50;1.00
4795;DHT22;2411;47.060;15.064;2023-04-12T03:02:24;1.40;1.00
4795;DHT22;2411;47.060;15.064;2023-04-12T03:04:52;1.30;1.00
4795;DHT22;2411;47.060;15.064;2023-04-12T03:07:21;1.20;1.00
4795;DHT22;2411;47.060;15.064;2023-04-12T03:09:49;1.10;1.00
4795;DHT22;2411;47.060;15.064;2023-04-12T03:12:16;1.00;1.00
4795;DHT22;2411;47.060;15.064;2023-04-12T03:14:44;1.00;1.00
4795;DHT22;2411;47.060;15.064;2023-04-12T03:17:11;1.00;1.00
4795;DHT22;2411;47.060;15.064;2023-04-12T03:19:38;1.00;1.00
4795;DHT22;2411;47.060;15.064;2023-04-12T03:22:06;1.00;1.00
4795;DHT22;2411;47.060;15.064;2023-04-12T03:24:33;1.10;1.00
4795;DHT22;2411;47.060;15.064;2023-04-12T03:27:01;1.10;1.00
4795;DHT22;2411;47.060;15.064;2023-04-12T03:29:30;0.90;1.00
4795;DHT22;2411;47.060;15.064;2023-04-12T03:31:57;0.90;1.00
4795;DHT22;2411;47.060;15.064;2023-04-12T03:34:26;1.00;1.00
4795;DHT22;2411;47.060;15.064;2023-04-12T03:37:02;1.20;1.00
4795;DHT22;2411;47.060;15.064;2023-04-12T03:39:29;1.20;1.00
4795;DHT22;2411;47.060;15.064;2023-04-12T03:41:57;1.30;1.00
4795;DHT22;2411;47.060;15.064;2023-04-12T03:44:24;1.00;1.00
4795;DHT22;2411;47.060;15.064;2023-04-12T03:46:52;1.00;1.00
4795;DHT22;2411;47.060;15.064;2023-04-12T03:49:20;0.80;1.00
4795;DHT22;2411;47.060;15.064;2023-04-12T03:51:47;0.60;1.00
4795;DHT22;2411;47.060;15.064;2023-04-12T03:54:16;0.60;1.00
4795;DHT22;2411;47.060;15.064;2023-04-12T03:56:44;0.80;1.00
4795;DHT22;2411;47.060;15.064;2023-04-12T03:59:12;1.00;1.00
4795;DHT22;2411;47.060;15.064;2023-04-12T04:01:40;1.30;1.00
4795;DHT22;2411;47.060;15.064;2023-04-12T04:04:09;1.60;1.00
4795;DHT22;2411;47.060;15.064;2023-04-12T04:06:37;1.70;1.00
4795;DHT22;2411;47.060;15.064;2023-04-12T04:09:05;1.30;1.00
4795;DHT22;2411;47.060;15.064;2023-04-12T04:11:33;1.30;1.00
4795;DHT22;2411;47.060;15.064;2023-04-12T04:14:01;1.10;1.00
4795;DHT22;2411;47.060;15.064;2023-04-12T04:16:28;1.00;1.00
4795;DHT22;2411;47.060;15.064;2023-04-12T04:18:57;0.90;1.00
4795;DHT22;2411;47.060;15.064;2023-04-12T04:21:24;0.60;1.00
4795;DHT22;2411;47.060;15.064;2023-04-12T04:23:52;0.50;1.00
4795;DHT22;2411;47.060;15.064;2023-04-12T04:26:20;0.30;1.00
4795;DHT22;2411;47.060;15.064;2023-04-12T04:28:57;0.40;1.00
4795;DHT22;2411;47.060;15.064;2023-04-12T04:31:28;0.30;1.00
4795;DHT22;2411;47.060;15.064;2023-04-12T04:34:01;0.40;1.00
4795;DHT22;2411;47.060;15.064;2023-04-12T04:36:33;0.40;1.00
4795;DHT22;2411;47.060;15.064;2023-04-12T04:39:01;0.80;1.00
4795;DHT22;2411;47.060;15.064;2023-04-12T04:41:31;0.90;1.00
4795;DHT22;2411;47.060;15.064;2023-04-12T04:44:00;0.70;1.00
4795;DHT22;2411;47.060;15.064;2023-04-12T04:46:30;0.70;1.00
4795;DHT22;2411;47.060;15.064;2023-04-12T04:48:58;1.00;1.00
4795;DHT22;2411;47.060;15.064;2023-04-12T04:51:26;0.90;1.00
4795;DHT22;2411;47.060;15.064;2023-04-12T04:53:53;1.00;1.00
4795;DHT22;2411;47.060;15.064;2023-04-12T04:56:21;1.10;1.00
4795;DHT22;2411;47.060;15.064;2023-04-12T04:58:49;1.00;1.00
4795;DHT22;2411;47.060;15.064;2023-04-12T05:01:16;1.10;1.00
4795;DHT22;2411;47.060;15.064;2023-04-12T05:03:44;1.10;1.00
4795;DHT22;2411;47.060;15.064;2023-04-12T05:06:11;1.00;1.00
4795;DHT22;2411;47.060;15.064;2023-04-12T05:08:38;1.30;1.00
4795;DHT22;2411;47.060;15.064;2023-04-12T05:11:06;1.40;1.00
4795;DHT22;2411;47.060;15.064;2023-04-12T05:13:34;1.80;1.00
4795;DHT22;2411;47.060;15.064;2023-04-12T05:16:05;2.00;1.00
4795;DHT22;2411;47.060;15.064;2023-04-12T05:18:34;2.10;1.00
4795;DHT22;2411;47.060;15.064;2023-04-12T05:21:02;2.50;1.00
4795;DHT22;2411;47.060;15.064;2023-04-12T05:23:40;2.70;1.00
4795;DHT22;2411;47.060;15.064;2023-04-12T05:26:08;3.00;1.00
4795;DHT22;2411;47.060;15.064;2023-04-12T05:28:35;3.20;1.00
4795;DHT22;2411;47.060;15.064;2023-04-12T05:31:03;3.40;1.00
4795;DHT22;2411;47.060;15.064;2023-04-12T05:33:30;3.50;1.00
4795;DHT22;2411;47.060;15.064;2023-04-12T05:36:00;3.70;1.00
4795;DHT22;2411;47.060;15.064;2023-04-12T05:38:27;3.90;1.00
4795;DHT22;2411;47.060;15.064;2023-04-12T05:40:55;3.90;1.00
4795;DHT22;2411;47.060;15.064;2023-04-12T05:43:22;4.00;1.00
4795;DHT22;2411;47.060;15.064;2023-04-12T05:45:49;4.30;1.00
4795;DHT22;2411;47.060;15.064;2023-04-12T05:48:17;4.10;1.00
4795;DHT22;2411;47.060;15.064;2023-04-12T05:50:52;4.20;1.00
4795;DHT22;2411;47.060;15.064;2023-04-12T05:53:20;3.90;1.00
4795;DHT22;2411;47.060;15.064;2023-04-12T05:55:48;3.90;1.00
4795;DHT22;2411;47.060;15.064;2023-04-12T05:58:15;3.90;1.00
4795;DHT22;2411;47.060;15.064;2023-04-12T06:00:42;4.10;1.00
4795;DHT22;2411;47.060;15.064;2023-04-12T06:03:11;4.30;1.00
4795;DHT22;2411;47.060;15.064;2023-04-12T06:05:38;4.50;1.00
4795;DHT22;2411;47.060;15.064;2023-04-12T06:08:06;4.60;1.00
4795;DHT22;2411;47.060;15.064;2023-04-12T06:10:34;4.90;1.00
4795;DHT22;2411;47.060;15.064;2023-04-12T06:13:01;5.00;1.00
4795;DHT22;2411;47.060;15.064;2023-04-12T06:15:29;5.10;1.00
4795;DHT22;2411;47.060;15.064;2023-04-12T06:17:58;5.30;1.00
4795;DHT22;2411;47.060;15.064;2023-04-12T06:20:26;5.40;1.00
4795;DHT22;2411;47.060;15.064;2023-04-12T06:22:54;5.60;1.00
4795;DHT22;2411;47.060;15.064;2023-04-12T06:25:21;5.60;1.00
4795;DHT22;2411;47.060;15.064;2023-04-12T06:27:49;5.80;1.00
4795;DHT22;2411;47.060;15.064;2023-04-12T06:30:17;5.90;1.00
4795;DHT22;2411;47.060;15.064;2023-04-12T06:32:44;6.00;1.00
4795;DHT22;2411;47.060;15.064;2023-04-12T06:35:12;6.00;1.00
4795;DHT22;2411;47.060;15.064;2023-04-12T06:37:39;6.20;1.00
4795;DHT22;2411;47.060;15.064;2023-04-12T06:40:07;6.30;1.00
4795;DHT22;2411;47.060;15.064;2023-04-12T06:42:35;6.40;1.00
4795;DHT22;2411;47.060;15.064;2023-04-12T06:45:03;6.60;1.00
4795;DHT22;2411;47.060;15.064;2023-04-12T06:47:31;6.80;1.00
4795;DHT22;2411;47.060;15.064;2023-04-12T06:49:59;7.00;1.00
4795;DHT22;2411;47.060;15.064;2023-04-12T06:52:26;7.10;1.00
4795;DHT22;2411;47.060;15.064;2023-04-12T06:54:54;7.20;1.00
4795;DHT22;2411;47.060;15.064;2023-04-12T06:57:23;7.50;1.00
4795;DHT22;2411;47.060;15.064;2023-04-12T06:59:50;7.60;1.00
4795;DHT22;2411;47.060;15.064;2023-04-12T07:02:18;7.70;1.00
4795;DHT22;2411;47.060;15.064;2023-04-12T07:04:45;7.90;1.00
4795;DHT22;2411;47.060;15.064;2023-04-12T07:07:13;8.00;1.00
4795;DHT22;2411;47.060;15.064;2023-04-12T07:09:40;8.20;1.00
4795;DHT22;2411;47.060;15.064;2023-04-12T07:12:09;8.40;1.00
4795;DHT22;2411;47.060;15.064;2023-04-12T07:14:36;8.70;1.00
4795;DHT22;2411;47.060;15.064;2023-04-12T07:17:03;8.90;1.00
4795;DHT22;2411;47.060;15.064;2023-04-12T07:19:30;9.20;1.00
4795;DHT22;2411;47.060;15.064;2023-04-12T07:21:58;9.30;1.00
4795;DHT22;2411;47.060;15.064;2023-04-12T07:24:25;9.60;1.00
4795;DHT22;2411;47.060;15.064;2023-04-12T07:26:53;9.60;1.00
4795;DHT22;2411;47.060;15.064;2023-04-12T07:29:21;9.60;1.00
4795;DHT22;2411;47.060;15.064;2023-04-12T07:31:48;9.50;1.00
4795;DHT22;2411;47.060;15.064;2023-04-12T07:34:15;9.60;1.00
4795;DHT22;2411;47.060;15.064;2023-04-12T07:36:43;9.70;1.00
4795;DHT22;2411;47.060;15.064;2023-04-12T07:39:11;9.90;1.00
4795;DHT22;2411;47.060;15.064;2023-04-12T07:41:38;9.90;1.00
4795;DHT22;2411;47.060;15.064;2023-04-12T07:44:05;10.10;1.00
4795;DHT22;2411;47.060;15.064;2023-04-12T07:46:33;10.30;1.00
4795;DHT22;2411;47.060;15.064;2023-04-12T07:49:00;10.30;1.00
4795;DHT22;2411;47.060;15.064;2023-04-12T07:51:27;10.40;1.00
4795;DHT22;2411;47.060;15.064;2023-04-12T07:53:55;10.50;1.00
4795;DHT22;2411;47.060;15.064;2023-04-12T07:56:22;10.40;1.00
4795;DHT22;2411;47.060;15.064;2023-04-12T07:58:50;10.60;1.00
4795;DHT22;2411;47.060;15.064;2023-04-12T08:01:17;10.40;1.00
4795;DHT22;2411;47.060;15.064;2023-04-12T08:03:44;10.40;1.00
4795;DHT22;2411;47.060;15.064;2023-04-12T08:06:14;10.60;1.00
4795;DHT22;2411;47.060;15.064;2023-04-12T08:08:41;10.70;1.00
4795;DHT22;2411;47.060;15.064;2023-04-12T08:11:09;11.00;1.00
4795;DHT22;2411;47.060;15.064;2023-04-12T08:13:36;11.00;1.00
4795;DHT22;2411;47.060;15.064;2023-04-12T08:16:04;11.10;1.00
4795;DHT22;2411;47.060;15.064;2023-04-12T08:18:32;11.20;1.00
4795;DHT22;2411;47.060;15.064;2023-04-12T08:20:59;11.50;1.00
4795;DHT22;2411;47.060;15.064;2023-04-12T08:23:27;11.30;1.00
4795;DHT22;2411;47.060;15.064;2023-04-12T08:25:54;11.40;1.00
4795;DHT22;2411;47.060;15.064;2023-04-12T08:28:29;11.50;1.00
4795;DHT22;2411;47.060;15.064;2023-04-12T08:30:57;11.60;1.00
4795;DHT22;2411;47.060;15.064;2023-04-12T08:33:25;11.50;1.00
4795;DHT22;2411;47.060;15.064;2023-04-12T08:35:53;11.80;1.00
4795;DHT22;2411;47.060;15.064;2023-04-12T08:38:21;11.40;1.00
4795;DHT22;2411;47.060;15.064;2023-04-12T08:41:07;11.40;1.00
4795;DHT22;2411;47.060;15.064;2023-04-12T08:43:36;11.60;1.00
4795;DHT22;2411;47.060;15.064;2023-04-12T08:46:04;11.70;1.00
4795;DHT22;2411;47.060;15.064;2023-04-12T08:48:32;11.50;1.00
4795;DHT22;2411;47.060;15.064;2023-04-12T08:51:00;11.80;1.00
4795;DHT22;2411;47.060;15.064;2023-04-12T08:53:28;11.90;1.00
4795;DHT22;2411;47.060;15.064;2023-04-12T08:55:57;11.70;1.00
4795;DHT22;2411;47.060;15.064;2023-04-12T08:58:24;11.70;1.00
4795;DHT22;2411;47.060;15.064;2023-04-12T09:00:52;11.70;1.00
4795;DHT22;2411;47.060;15.064;2023-04-12T09:03:20;11.70;1.00
4795;DHT22;2411;47.060;15.064;2023-04-12T09:05:48;11.80;1.00
4795;DHT22;2411;47.060;15.064;2023-04-12T09:08:15;12.00;1.00
4795;DHT22;2411;47.060;15.064;2023-04-12T09:10:43;11.70;1.00
4795;DHT22;2411;47.060;15.064;2023-04-12T09:13:11;11.70;1.00
4795;DHT22;2411;47.060;15.064;2023-04-12T09:15:48;11.80;1.00
4795;DHT22;2411;47.060;15.064;2023-04-12T09:18:15;11.90;1.00
4795;DHT22;2411;47.060;15.064;2023-04-12T09:20:43;12.20;1.00
4795;DHT22;2411;47.060;15.064;2023-04-12T09:23:21;12.20;1.00
4795;DHT22;2411;47.060;15.064;2023-04-12T09:25:50;12.40;1.00
4795;DHT22;2411;47.060;15.064;2023-04-12T09:30:48;12.80;1.00
4795;DHT22;2411;47.060;15.064;2023-04-12T09:33:22;12.50;1.00
4795;DHT22;2411;47.060;15.064;2023-04-12T09:35:59;12.50;1.00
4795;DHT22;2411;47.060;15.064;2023-04-12T09:38:29;12.30;1.00
4795;DHT22;2411;47.060;15.064;2023-04-12T09:40:58;12.90;1.00
4795;DHT22;2411;47.060;15.064;2023-04-12T09:43:40;12.90;1.00
4795;DHT22;2411;47.060;15.064;2023-04-12T09:46:12;12.80;1.00
4795;DHT22;2411;47.060;15.064;2023-04-12T09:48:41;13.20;1.00
4795;DHT22;2411;47.060;15.064;2023-04-12T09:51:32;13.60;1.00
4795;DHT22;2411;47.060;15.064;2023-04-12T09:54:01;13.10;1.00
4795;DHT22;2411;47.060;15.064;2023-04-12T09:56:31;13.70;1.00
4795;DHT22;2411;47.060;15.064;2023-04-12T09:59:03;13.60;1.00
4795;DHT22;2411;47.060;15.064;2023-04-12T10:01:35;13.60;1.00
4795;DHT22;2411;47.060;15.064;2023-04-12T10:04:05;13.90;1.00
4795;DHT22;2411;47.060;15.064;2023-04-12T10:06:35;14.00;1.00
4795;DHT22;2411;47.060;15.064;2023-04-12T10:09:07;13.60;1.00
4795;DHT22;2411;47.060;15.064;2023-04-12T10:11:36;13.80;1.00
4795;DHT22;2411;47.060;15.064;2023-04-12T10:14:06;14.30;1.00
4795;DHT22;2411;47.060;15.064;2023-04-12T10:16:35;14.20;1.00
4795;DHT22;2411;47.060;15.064;2023-04-12T10:19:03;14.00;1.00
4795;DHT22;2411;47.060;15.064;2023-04-12T10:21:30;13.60;1.00
4795;DHT22;2411;47.060;15.064;2023-04-12T10:23:58;13.30;1.00
4795;DHT22;2411;47.060;15.064;2023-04-12T10:26:26;13.60;1.00
4795;DHT22;2411;47.060;15.064;2023-04-12T10:29:22;13.60;1.00
4795;DHT22;2411;47.060;15.064;2023-04-12T10:32:22;14.10;1.00
4795;DHT22;2411;47.060;15.064;2023-04-12T10:34:52;14.10;1.00
4795;DHT22;2411;47.060;15.064;2023-04-12T10:37:19;14.20;1.00
4795;DHT22;2411;47.060;15.064;2023-04-12T10:39:54;14.30;1.00
4795;DHT22;2411;47.060;15.064;2023-04-12T10:42:26;14.60;1.00
4795;DHT22;2411;47.060;15.064;2023-04-12T10:44:54;14.50;1.00
4795;DHT22;2411;47.060;15.064;2023-04-12T10:50:29;14.50;1.00
4795;DHT22;2411;47.060;15.064;2023-04-12T10:55:39;14.70;1.00
4795;DHT22;2411;47.060;15.064;2023-04-12T10:58:08;14.70;1.00
4795;DHT22;2411;47.060;15.064;2023-04-12T11:01:08;15.00;1.00
4795;DHT22;2411;47.060;15.064;2023-04-12T11:03:36;14.60;1.00
4795;DHT22;2411;47.060;15.064;2023-04-12T11:06:04;14.50;1.00
4795;DHT22;2411;47.060;15.064;2023-04-12T11:08:54;14.70;1.00
4795;DHT22;2411;47.060;15.064;2023-04-12T11:11:24;14.90;1.00
4795;DHT22;2411;47.060;15.064;2023-04-12T11:13:57;15.20;1.00
4795;DHT22;2411;47.060;15.064;2023-04-12T11:16:25;15.40;1.00
4795;DHT22;2411;47.060;15.064;2023-04-12T11:18:52;15.30;1.00
4795;DHT22;2411;47.060;15.064;2023-04-12T11:21:20;15.20;1.00
4795;DHT22;2411;47.060;15.064;2023-04-12T11:23:50;15.30;1.00
4795;DHT22;2411;47.060;15.064;2023-04-12T11:26:19;15.30;1.00
4795;DHT22;2411;47.060;15.064;2023-04-12T11:28:48;15.20;1.00
4795;DHT22;2411;47.060;15.064;2023-04-12T11:31:19;15.20;1.00
4795;DHT22;2411;47.060;15.064;2023-04-12T11:33:47;15.40;1.00
4795;DHT22;2411;47.060;15.064;2023-04-12T11:36:14;15.50;1.00
4795;DHT22;2411;47.060;15.064;2023-04-12T11:38:43;14.90;1.00
4795;DHT22;2411;47.060;15.064;2023-04-12T11:41:14;15.10;1.00
4795;DHT22;2411;47.060;15.064;2023-04-12T11:43:41;15.00;1.00
4795;DHT22;2411;47.060;15.064;2023-04-12T11:46:08;14.80;1.00
4795;DHT22;2411;47.060;15.064;2023-04-12T11:48:36;15.10;1.00
4795;DHT22;2411;47.060;15.064;2023-04-12T11:51:20;15.00;1.00
4795;DHT22;2411;47.060;15.064;2023-04-12T11:53:52;15.30;1.00
4795;DHT22;2411;47.060;15.064;2023-04-12T11:56:20;15.20;1.00
4795;DHT22;2411;47.060;15.064;2023-04-12T11:58:48;15.50;1.00
4795;DHT22;2411;47.060;15.064;2023-04-12T12:01:17;15.90;1.00
4795;DHT22;2411;47.060;15.064;2023-04-12T12:03:46;15.60;1.00
4795;DHT22;2411;47.060;15.064;2023-04-12T12:06:14;16.20;1.00
4795;DHT22;2411;47.060;15.064;2023-04-12T12:08:43;16.20;1.00
4795;DHT22;2411;47.060;15.064;2023-04-12T12:11:10;15.70;1.00
4795;DHT22;2411;47.060;15.064;2023-04-12T12:16:16;16.10;1.00
4795;DHT22;2411;47.060;15.064;2023-04-12T12:18:47;15.80;1.00
4795;DHT22;2411;47.060;15.064;2023-04-12T12:21:18;15.70;1.00
4795;DHT22;2411;47.060;15.064;2023-04-12T12:23:46;15.60;1.00
4795;DHT22;2411;47.060;15.064;2023-04-12T12:26:22;15.30;1.00
4795;DHT22;2411;47.060;15.064;2023-04-12T12:28:52;15.30;1.00
4795;DHT22;2411;47.060;15.064;2023-04-12T12:31:21;15.50;1.00
4795;DHT22;2411;47.060;15.064;2023-04-12T12:33:53;15.00;1.00
4795;DHT22;2411;47.060;15.064;2023-04-12T12:36:31;15.10;1.00
4795;DHT22;2411;47.060;15.064;2023-04-12T12:39:17;15.10;1.00
4795;DHT22;2411;47.060;15.064;2023-04-12T12:41:55;15.50;1.00
4795;DHT22;2411;47.060;15.064;2023-04-12T12:44:23;15.40;1.00
4795;DHT22;2411;47.060;15.064;2023-04-12T12:46:50;15.60;1.00
4795;DHT22;2411;47.060;15.064;2023-04-12T12:49:27;16.10;1.00
4795;DHT22;2411;47.060;15.064;2023-04-12T12:51:54;16.40;1.00
4795;DHT22;2411;47.060;15.064;2023-04-12T12:54:24;16.00;1.00
4795;DHT22;2411;47.060;15.064;2023-04-12T12:56:55;15.80;1.00
4795;DHT22;2411;47.060;15.064;2023-04-12T12:59:22;15.70;1.00
4795;DHT22;2411;47.060;15.064;2023-04-12T13:01:51;16.20;1.00
4795;DHT22;2411;47.060;15.064;2023-04-12T13:04:19;16.30;1.00
4795;DHT22;2411;47.060;15.064;2023-04-12T13:06:47;16.40;1.00
4795;DHT22;2411;47.060;15.064;2023-04-12T13:09:14;16.50;1.00
4795;DHT22;2411;47.060;15.064;2023-04-12T13:11:41;16.80;1.00
4795;DHT22;2411;47.060;15.064;2023-04-12T13:14:08;16.60;1.00
4795;DHT22;2411;47.060;15.064;2023-04-12T13:16:36;16.80;1.00
4795;DHT22;2411;47.060;15.064;2023-04-12T13:19:03;17.00;1.00
4795;DHT22;2411;47.060;15.064;2023-04-12T13:21:30;17.10;1.00
4795;DHT22;2411;47.060;15.064;2023-04-12T13:23:57;16.90;1.00
4795;DHT22;2411;47.060;15.064;2023-04-12T13:26:28;16.70;1.00
4795;DHT22;2411;47.060;15.064;2023-04-12T13:28:55;17.20;1.00
4795;DHT22;2411;47.060;15.064;2023-04-12T13:31:23;16.90;1.00
4795;DHT22;2411;47.060;15.064;2023-04-12T13:33:50;16.20;1.00
4795;DHT22;2411;47.060;15.064;2023-04-12T13:36:18;16.20;1.00
4795;DHT22;2411;47.060;15.064;2023-04-12T13:38:45;15.90;1.00
4795;DHT22;2411;47.060;15.064;2023-04-12T13:41:12;15.80;1.00
4795;DHT22;2411;47.060;15.064;2023-04-12T13:43:40;16.10;1.00
4795;DHT22;2411;47.060;15.064;2023-04-12T13:46:07;16.10;1.00
4795;DHT22;2411;47.060;15.064;2023-04-12T13:48:34;16.30;1.00
4795;DHT22;2411;47.060;15.064;2023-04-12T13:51:01;16.40;1.00
4795;DHT22;2411;47.060;15.064;2023-04-12T13:53:30;16.30;1.00
4795;DHT22;2411;47.060;15.064;2023-04-12T13:55:57;16.50;1.00
4795;DHT22;2411;47.060;15.064;2023-04-12T13:58:24;16.80;1.00
4795;DHT22;2411;47.060;15.064;2023-04-12T14:00:52;16.80;1.00
4795;DHT22;2411;47.060;15.064;2023-04-12T14:03:22;16.50;1.00
4795;DHT22;2411;47.060;15.064;2023-04-12T14:05:49;16.30;1.00
4795;DHT22;2411;47.060;15.064;2023-04-12T14:08:17;16.20;1.00
4795;DHT22;2411;47.060;15.064;2023-04-12T14:10:44;16.20;1.00
4795;DHT22;2411;47.060;15.064;2023-04-12T14:13:12;16.10;1.00
4795;DHT22;2411;47.060;15.064;2023-04-12T14:15:39;16.20;1.00
4795;DHT22;2411;47.060;15.064;2023-04-12T14:18:07;15.90;1.00
4795;DHT22;2411;47.060;15.064;2023-04-12T14:20:34;16.10;1.00
4795;DHT22;2411;47.060;15.064;2023-04-12T14:23:01;15.80;1.00
4795;DHT22;2411;47.060;15.064;2023-04-12T14:25:30;15.90;1.00
4795;DHT22;2411;47.060;15.064;2023-04-12T14:27:58;15.90;1.00
4795;DHT22;2411;47.060;15.064;2023-04-12T14:30:25;15.80;1.00
4795;DHT22;2411;47.060;15.064;2023-04-12T14:32:53;15.70;1.00
4795;DHT22;2411;47.060;15.064;2023-04-12T14:35:20;15.40;1.00
4795;DHT22;2411;47.060;15.064;2023-04-12T14:37:48;15.30;1.00
4795;DHT22;2411;47.060;15.064;2023-04-12T14:40:15;15.50;1.00
4795;DHT22;2411;47.060;15.064;2023-04-12T14:42:44;15.20;1.00
4795;DHT22;2411;47.060;15.064;2023-04-12T14:45:11;15.40;1.00
4795;DHT22;2411;47.060;15.064;2023-04-12T14:47:39;15.10;1.00
4795;DHT22;2411;47.060;15.064;2023-04-12T14:50:07;15.30;1.00
4795;DHT22;2411;47.060;15.064;2023-04-12T14:52:35;15.60;1.00
4795;DHT22;2411;47.060;15.064;2023-04-12T14:55:02;15.70;1.00
4795;DHT22;2411;47.060;15.064;2023-04-12T14:57:30;15.60;1.00
4795;DHT22;2411;47.060;15.064;2023-04-12T14:59:57;15.20;1.00
4795;DHT22;2411;47.060;15.064;2023-04-12T15:02:24;15.30;1.00
4795;DHT22;2411;47.060;15.064;2023-04-12T15:04:52;15.30;1.00
4795;DHT22;2411;47.060;15.064;2023-04-12T15:07:20;15.00;1.00
4795;DHT22;2411;47.060;15.064;2023-04-12T15:09:47;15.10;1.00
4795;DHT22;2411;47.060;15.064;2023-04-12T15:12:14;15.10;1.00
4795;DHT22;2411;47.060;15.064;2023-04-12T15:14:43;15.00;1.00
4795;DHT22;2411;47.060;15.064;2023-04-12T15:17:10;15.10;1.00
4795;DHT22;2411;47.060;15.064;2023-04-12T15:19:37;15.10;1.00
4795;DHT22;2411;47.060;15.064;2023-04-12T15:22:04;15.20;1.00
4795;DHT22;2411;47.060;15.064;2023-04-12T15:24:32;15.00;1.00
4795;DHT22;2411;47.060;15.064;2023-04-12T15:27:00;15.00;1.00
4795;DHT22;2411;47.060;15.064;2023-04-12T15:29:32;15.10;1.00
4795;DHT22;2411;47.060;15.064;2023-04-12T15:31:59;15.20;1.00
4795;DHT22;2411;47.060;15.064;2023-04-12T15:34:27;15.00;1.00
4795;DHT22;2411;47.060;15.064;2023-04-12T15:36:56;14.80;1.00
4795;DHT22;2411;47.060;15.064;2023-04-12T15:39:23;15.10;1.00
4795;DHT22;2411;47.060;15.064;2023-04-12T15:41:50;14.90;1.00
4795;DHT22;2411;47.060;15.064;2023-04-12T15:44:18;15.00;1.00
4795;DHT22;2411;47.060;15.064;2023-04-12T15:46:45;14.80;1.00
4795;DHT22;2411;47.060;15.064;2023-04-12T15:49:25;15.00;1.00
4795;DHT22;2411;47.060;15.064;2023-04-12T15:51:54;14.70;1.00
4795;DHT22;2411;47.060;15.064;2023-04-12T15:54:24;14.70;1.00
4795;DHT22;2411;47.060;15.064;2023-04-12T15:56:51;14.50;1.00
4795;DHT22;2411;47.060;15.064;2023-04-12T15:59:18;14.40;1.00
4795;DHT22;2411;47.060;15.064;2023-04-12T16:01:46;14.60;1.00
4795;DHT22;2411;47.060;15.064;2023-04-12T16:04:14;14.60;1.00
4795;DHT22;2411;47.060;15.064;2023-04-12T16:06:44;14.80;1.00
4795;DHT22;2411;47.060;15.064;2023-04-12T16:09:12;14.90;1.00
4795;DHT22;2411;47.060;15.064;2023-04-12T16:11:40;14.90;1.00
4795;DHT22;2411;47.060;15.064;2023-04-12T16:14:09;14.80;1.00
4795;DHT22;2411;47.060;15.064;2023-04-12T16:16:36;14.60;1.00
4795;DHT22;2411;47.060;15.064;2023-04-12T16:19:06;14.70;1.00
4795;DHT22;2411;47.060;15.064;2023-04-12T16:21:34;14.60;1.00
4795;DHT22;2411;47.060;15.064;2023-04-12T16:24:02;14.70;1.00
4795;DHT22;2411;47.060;15.064;2023-04-12T16:26:30;14.30;1.00
4795;DHT22;2411;47.060;15.064;2023-04-12T16:28:58;14.30;1.00
4795;DHT22;2411;47.060;15.064;2023-04-12T16:31:27;14.10;1.00
4795;DHT22;2411;47.060;15.064;2023-04-12T16:33:55;14.10;1.00
4795;DHT22;2411;47.060;15.064;2023-04-12T16:36:22;14.40;1.00
4795;DHT22;2411;47.060;15.064;2023-04-12T16:38:50;14.30;1.00
4795;DHT22;2411;47.060;15.064;2023-04-12T16:41:21;14.50;1.00